createdAt,value
2024-03-05T00:00:39.857Z,60.78
2024-03-05T00:03:06.781Z,60.79
2024-03-05T00:05:33.511Z,60.98
2024-03-05T00:08:00.580Z,61.04
2024-03-05T00:10:27.464Z,61.09
2024-03-05T00:12:54.480Z,61.17
2024-03-05T00:15:21.221Z,61.31
2024-03-05T00:17:47.897Z,61.44
2024-03-05T00:20:20.007Z,60.99
2024-03-05T00:22:51.860Z,60.70
2024-03-05T00:25:19.330Z,61.31
2024-03-05T00:27:46.712Z,61.43
2024-03-05T00:30:15.355Z,61.30
2024-03-05T00:32:42.653Z,60.88
2024-03-05T00:35:13.120Z,60.82
2024-03-05T00:37:40.040Z,60.86
2024-03-05T00:40:10.445Z,61.06
2024-03-05T00:42:37.886Z,60.74
2024-03-05T00:45:09.199Z,60.45
2024-03-05T00:47:37.398Z,60.50
2024-03-05T00:50:05.944Z,60.22
2024-03-05T00:52:33.409Z,60.38
2024-03-05T00:55:01.501Z,60.69
2024-03-05T00:57:28.889Z,60.61
2024-03-05T00:59:55.838Z,60.52
2024-03-05T01:02:23.970Z,60.45
2024-03-05T01:04:51.437Z,60.52
2024-03-05T01:07:18.745Z,60.36
2024-03-05T01:09:46.053Z,60.73
2024-03-05T01:12:12.817Z,60.47
2024-03-05T01:14:39.945Z,60.16
2024-03-05T01:17:07.018Z,60.05
2024-03-05T01:19:33.797Z,59.97
2024-03-05T01:22:01.056Z,60.02
2024-03-05T01:24:28.712Z,59.98
2024-03-05T01:26:55.409Z,59.86
2024-03-05T01:29:23.426Z,59.06
2024-03-05T01:31:57.803Z,59.79
2024-03-05T01:34:25.608Z,64.04
2024-03-05T01:36:59.301Z,65.47
2024-03-05T01:39:28.845Z,64.84
2024-03-05T01:41:56.556Z,63.99
2024-03-05T01:44:23.853Z,63.35
2024-03-05T01:46:57.540Z,62.59
2024-03-05T01:49:26.508Z,61.75
2024-03-05T01:51:56.039Z,61.44
2024-03-05T01:54:24.834Z,61.35
2024-03-05T01:56:56.109Z,61.13
2024-03-05T01:59:23.860Z,60.69
2024-03-05T02:01:52.003Z,60.55
2024-03-05T02:04:18.991Z,59.96
2024-03-05T02:06:47.510Z,58.64
2024-03-05T02:09:14.928Z,59.58
2024-03-05T02:11:52.854Z,61.42
2024-03-05T02:14:27.891Z,65.46
2024-03-05T02:16:59.325Z,66.19
2024-03-05T02:19:27.330Z,64.95
2024-03-05T02:22:04.848Z,63.70
2024-03-05T02:24:31.988Z,62.58
2024-03-05T02:27:03.285Z,62.25
2024-03-05T02:29:32.583Z,61.73
2024-03-05T02:31:59.645Z,61.89
2024-03-05T02:34:27.312Z,62.18
2024-03-05T02:36:54.192Z,62.00
2024-03-05T02:39:21.434Z,61.93
2024-03-05T02:41:51.033Z,61.70
2024-03-05T02:44:17.658Z,61.68
2024-03-05T02:46:44.307Z,61.38
2024-03-05T02:49:12.854Z,61.43
2024-03-05T02:51:39.513Z,61.55
2024-03-05T02:54:07.617Z,61.55
2024-03-05T02:56:34.980Z,61.20
2024-03-05T02:59:01.826Z,61.28
2024-03-05T03:01:28.828Z,61.54
2024-03-05T03:03:55.886Z,61.79
2024-03-05T03:06:23.494Z,61.53
2024-03-05T03:08:50.115Z,61.30
2024-03-05T03:11:20.231Z,61.36
2024-03-05T03:13:49.905Z,61.52
2024-03-05T03:17:12.603Z,61.62
2024-03-05T03:19:39.357Z,61.59
2024-03-05T03:22:06.248Z,61.68
2024-03-05T03:24:32.947Z,61.73
2024-03-05T03:26:59.886Z,61.74
2024-03-05T03:29:27.804Z,61.49
2024-03-05T03:31:56.537Z,61.64
2024-03-05T03:34:23.732Z,61.55
2024-03-05T03:36:50.566Z,61.56
2024-03-05T03:39:25.292Z,61.50
2024-03-05T03:41:54.763Z,61.18
2024-03-05T03:44:23.517Z,61.14
2024-03-05T03:46:51.706Z,61.39
2024-03-05T03:49:27.111Z,61.78
2024-03-05T03:51:55.298Z,61.48
2024-03-05T03:54:23.024Z,61.45
2024-03-05T03:56:50.308Z,61.46
2024-03-05T03:59:17.617Z,61.64
2024-03-05T04:01:53.210Z,61.52
2024-03-05T04:04:20.052Z,61.55
2024-03-05T04:06:47.738Z,61.57
2024-03-05T04:09:15.484Z,61.32
2024-03-05T04:11:43.684Z,61.19
2024-03-05T04:14:11.062Z,61.17
2024-03-05T04:16:41.961Z,60.68
2024-03-05T04:19:09.849Z,60.88
2024-03-05T04:21:43.624Z,61.03
2024-03-05T04:24:14.159Z,61.13
2024-03-05T04:26:42.745Z,61.13
2024-03-05T04:29:17.743Z,60.90
2024-03-05T04:31:50.694Z,60.89
2024-03-05T04:34:21.838Z,60.82
2024-03-05T04:36:55.531Z,61.11
2024-03-05T04:39:23.929Z,61.21
2024-03-05T04:41:50.785Z,61.18
2024-03-05T04:44:17.635Z,61.32
2024-03-05T04:46:44.273Z,61.19
2024-03-05T04:49:10.921Z,61.22
2024-03-05T04:51:38.303Z,61.38
2024-03-05T04:54:05.385Z,61.83
2024-03-05T04:56:32.500Z,61.89
2024-03-05T04:58:59.323Z,62.04
2024-03-05T05:01:26.312Z,62.09
2024-03-05T05:03:53.169Z,62.09
2024-03-05T05:06:19.840Z,62.05
2024-03-05T05:08:47.065Z,61.95
2024-03-05T05:11:13.900Z,61.76
2024-03-05T05:13:44.401Z,61.85
2024-03-05T05:16:12.799Z,61.69
2024-03-05T05:18:39.963Z,61.33
2024-03-05T05:21:08.831Z,61.45
2024-03-05T05:23:36.270Z,61.39
2024-03-05T05:26:03.424Z,61.51
2024-03-05T05:28:30.522Z,61.35
2024-03-05T05:30:57.278Z,61.35
2024-03-05T05:33:23.983Z,61.12
2024-03-05T05:35:51.446Z,61.34
2024-03-05T05:38:18.241Z,61.29
2024-03-05T05:40:44.926Z,61.23
2024-03-05T05:43:12.665Z,60.99
2024-03-05T05:45:39.438Z,61.37
2024-03-05T05:48:06.914Z,61.41
2024-03-05T05:50:33.661Z,61.28
2024-03-05T05:53:00.754Z,60.90
2024-03-05T05:55:28.390Z,60.93
2024-03-05T05:57:56.720Z,60.92
2024-03-05T06:00:40.242Z,60.59
2024-03-05T06:03:10.590Z,60.21
2024-03-05T06:05:39.311Z,60.56
2024-03-05T06:08:13.438Z,60.43
2024-03-05T06:10:43.103Z,60.27
2024-03-05T06:13:10.543Z,60.05
2024-03-05T06:15:39.878Z,59.69
2024-03-05T06:18:07.637Z,58.27
2024-03-05T06:20:34.537Z,58.73
2024-03-05T06:23:02.273Z,60.67
2024-03-05T06:25:29.428Z,63.93
2024-03-05T06:27:56.466Z,65.26
2024-03-05T06:30:24.223Z,63.89
2024-03-05T06:32:52.973Z,62.79
2024-03-05T06:35:23.796Z,62.05
2024-03-05T06:37:51.916Z,61.14
2024-03-05T06:40:25.061Z,60.52
2024-03-05T06:42:53.819Z,60.48
2024-03-05T06:45:29.068Z,60.14
2024-03-05T06:48:10.483Z,59.97
2024-03-05T06:50:45.029Z,60.05
2024-03-05T06:53:31.970Z,59.99
2024-03-05T06:56:18.026Z,59.78
2024-03-05T06:58:47.827Z,58.78
2024-03-05T07:01:16.145Z,59.70
2024-03-05T07:03:45.861Z,63.07
2024-03-05T07:06:14.555Z,64.59
2024-03-05T07:08:44.076Z,63.71
2024-03-05T07:11:12.578Z,62.98
2024-03-05T07:13:44.613Z,62.38
2024-03-05T07:16:17.790Z,61.24
2024-03-05T07:18:51.649Z,60.81
2024-03-05T07:21:21.590Z,60.28
2024-03-05T07:23:52.990Z,60.46
2024-03-05T07:39:32.786Z,62.97
2024-03-05T07:41:59.497Z,63.01
2024-03-05T07:44:26.152Z,62.41
2024-03-05T07:46:52.889Z,61.82
2024-03-05T07:49:19.906Z,60.71
2024-03-05T07:51:46.698Z,60.23
2024-03-05T07:54:14.335Z,59.93
2024-03-05T07:56:41.868Z,59.91
2024-03-05T07:59:08.724Z,58.95
2024-03-05T08:01:35.444Z,60.04
2024-03-05T08:04:02.449Z,62.71
2024-03-05T08:06:30.172Z,65.44
2024-03-05T08:08:57.085Z,64.89
2024-03-05T08:11:24.748Z,63.34
2024-03-05T08:13:52.358Z,61.97
2024-03-05T08:16:19.355Z,61.36
2024-03-05T08:18:47.301Z,60.90
2024-03-05T08:21:14.897Z,60.07
2024-03-05T08:23:41.854Z,59.01
2024-03-05T08:26:08.842Z,59.91
2024-03-05T08:28:35.952Z,62.66
2024-03-05T08:31:02.840Z,65.29
2024-03-05T08:33:29.583Z,64.36
2024-03-05T08:35:56.305Z,62.21
2024-03-05T08:38:22.957Z,61.29
2024-03-05T08:40:50.561Z,60.38
2024-03-05T08:43:17.416Z,58.90
2024-03-05T08:45:44.326Z,58.96
2024-03-05T08:48:11.347Z,62.12
2024-03-05T08:50:38.139Z,64.25
2024-03-05T08:53:06.086Z,63.50
2024-03-05T08:55:33.103Z,61.17
2024-03-05T08:58:01.861Z,60.70
2024-03-05T09:00:38.100Z,59.78
2024-03-05T09:03:10.812Z,59.10
2024-03-05T09:05:37.946Z,60.60
2024-03-05T09:08:06.634Z,64.43
2024-03-05T09:10:34.938Z,65.10
2024-03-05T09:13:02.002Z,63.39
2024-03-05T09:15:28.757Z,62.38
2024-03-05T09:17:55.667Z,61.14
2024-03-05T09:20:22.523Z,60.98
2024-03-05T09:22:49.417Z,60.52
2024-03-05T09:25:17.381Z,60.81
2024-03-05T09:27:46.488Z,60.36
2024-03-05T09:30:16.970Z,60.26
2024-03-05T09:32:45.627Z,59.92
2024-03-05T09:35:14.624Z,59.88
2024-03-05T09:37:48.477Z,58.90
2024-03-05T09:40:19.433Z,60.72
2024-03-05T09:42:47.725Z,64.40
2024-03-05T09:45:17.016Z,64.98
2024-03-05T09:47:45.008Z,63.65
2024-03-05T09:50:17.436Z,62.83
2024-03-05T09:52:48.816Z,62.04
2024-03-05T09:55:18.513Z,61.43
2024-03-05T09:57:49.629Z,60.29
2024-03-05T10:00:19.403Z,59.34
2024-03-05T10:02:49.239Z,58.82
2024-03-05T10:05:17.779Z,60.56
2024-03-05T10:07:47.470Z,63.56
2024-03-05T10:10:18.416Z,64.32
2024-03-05T10:12:45.267Z,62.58
2024-03-05T10:15:22.386Z,60.89
2024-03-05T10:17:52.288Z,59.91
2024-03-05T10:20:45.567Z,59.94
2024-03-05T10:23:12.632Z,58.68
2024-03-05T10:25:41.466Z,60.31
2024-03-05T10:28:10.188Z,63.87
2024-03-05T10:30:38.950Z,63.86
2024-03-05T10:33:11.681Z,62.48
2024-03-05T10:35:39.957Z,61.36
2024-03-05T10:38:11.208Z,60.74
2024-03-05T10:40:39.480Z,60.44
2024-03-05T10:43:10.746Z,59.06
2024-03-05T10:45:41.804Z,59.15
2024-03-05T10:48:12.162Z,60.54
2024-03-05T10:50:41.825Z,64.59
2024-03-05T10:53:09.788Z,65.22
2024-03-05T10:55:38.915Z,63.83
2024-03-05T10:58:13.702Z,61.69
2024-03-05T11:00:43.197Z,60.37
2024-03-05T11:03:11.840Z,59.89
2024-03-05T11:05:50.733Z,58.52
2024-03-05T11:08:25.496Z,58.42
2024-03-05T11:11:23.645Z,60.88
2024-03-05T11:13:52.859Z,64.25
2024-03-05T11:16:21.643Z,62.65
2024-03-05T11:18:48.592Z,61.70
2024-03-05T11:21:16.791Z,61.15
2024-03-05T11:23:52.417Z,60.44
2024-03-05T11:26:23.386Z,59.62
2024-03-05T11:28:53.194Z,57.24
2024-03-05T11:31:22.229Z,58.86
2024-03-05T11:34:10.561Z,60.42
2024-03-05T11:36:37.962Z,64.07
2024-03-05T11:39:19.238Z,63.49
2024-03-05T11:41:47.588Z,63.13
2024-03-05T11:44:36.537Z,62.17
2024-03-05T11:47:04.495Z,60.63
2024-03-05T11:49:32.577Z,59.67
2024-03-05T11:51:59.941Z,57.40
2024-03-05T11:54:26.623Z,57.61
2024-03-05T11:56:58.355Z,58.45
2024-03-05T11:59:35.737Z,59.95
2024-03-05T12:02:03.107Z,60.33
2024-03-05T12:04:30.709Z,63.88
2024-03-05T12:07:08.248Z,64.70
2024-03-05T12:09:40.578Z,62.44
2024-03-05T12:12:13.569Z,60.64
2024-03-05T12:14:53.154Z,58.52
2024-03-05T12:17:21.223Z,58.27
2024-03-05T12:20:08.974Z,60.37
2024-03-05T12:22:41.607Z,63.89
2024-03-05T12:25:09.673Z,64.00
2024-03-05T12:27:38.701Z,62.24
2024-03-05T12:30:07.579Z,59.78
2024-03-05T12:32:34.658Z,57.72
2024-03-05T12:35:01.612Z,59.39
2024-03-05T12:37:30.894Z,61.43
2024-03-05T12:40:01.336Z,65.64
2024-03-05T12:42:29.872Z,64.68
2024-03-05T12:45:18.585Z,63.35
2024-03-05T12:48:04.532Z,61.26
2024-03-05T12:50:31.726Z,58.23
2024-03-05T12:53:06.168Z,58.06
2024-03-05T12:55:36.201Z,59.73
2024-03-05T12:58:08.311Z,61.95
2024-03-05T13:00:35.799Z,64.65
2024-03-05T13:03:06.887Z,64.98
2024-03-05T13:05:34.613Z,62.83
2024-03-05T13:08:01.541Z,61.26
2024-03-05T13:10:44.918Z,60.23
2024-03-05T13:13:11.897Z,58.38
2024-03-05T13:15:39.065Z,59.24
2024-03-05T13:18:06.981Z,61.18
2024-03-05T13:20:34.427Z,64.59
2024-03-05T13:23:01.216Z,65.34
2024-03-05T13:25:30.034Z,63.36
2024-03-05T13:27:56.966Z,61.57
2024-03-05T13:30:24.196Z,61.05
2024-03-05T13:32:53.667Z,59.80
2024-03-05T13:35:20.537Z,58.45
2024-03-05T13:37:48.918Z,58.50
2024-03-05T13:40:20.403Z,60.25
2024-03-05T13:42:49.536Z,63.73
2024-03-05T13:45:19.995Z,63.87
2024-03-05T13:47:47.363Z,62.66
2024-03-05T13:50:17.413Z,61.49
2024-03-05T13:52:46.297Z,60.64
2024-03-05T13:55:15.094Z,59.80
2024-03-05T13:57:42.736Z,58.08
2024-03-05T14:00:15.246Z,58.29
2024-03-05T14:02:42.040Z,59.44
2024-03-05T14:05:12.301Z,62.79
2024-03-05T14:07:39.612Z,64.50
2024-03-05T14:10:06.716Z,63.33
2024-03-05T14:12:36.399Z,61.65
2024-03-05T14:15:09.826Z,60.60
2024-03-05T14:17:38.165Z,59.75
2024-03-05T14:20:08.772Z,58.67
2024-03-05T14:22:39.838Z,58.79
2024-03-05T14:25:08.171Z,61.04
2024-03-05T14:27:34.869Z,64.50
2024-03-05T14:30:01.631Z,66.03
2024-03-05T14:32:28.593Z,64.61
2024-03-05T14:34:58.698Z,63.32
2024-03-05T14:37:25.724Z,62.30
2024-03-05T14:39:55.314Z,61.31
2024-03-05T14:42:22.000Z,60.35
2024-03-05T14:44:48.755Z,60.02
2024-03-05T14:47:15.414Z,60.03
2024-03-05T14:49:43.523Z,60.02
2024-03-05T14:52:10.647Z,59.77
2024-03-05T14:54:37.349Z,58.76
2024-03-05T14:57:04.363Z,59.47
2024-03-05T14:59:31.006Z,61.87
2024-03-05T15:01:57.900Z,66.14
2024-03-05T15:04:27.982Z,66.71
2024-03-05T15:06:57.525Z,65.69
2024-03-05T15:09:24.186Z,64.40
2024-03-05T15:11:51.050Z,63.84
2024-03-05T15:14:17.808Z,63.45
2024-03-05T15:16:44.498Z,62.95
2024-03-05T15:19:11.204Z,62.43
2024-03-05T15:21:39.051Z,62.49
2024-03-05T15:24:06.105Z,62.77
2024-03-05T15:26:33.744Z,62.71
2024-03-05T15:29:00.526Z,62.96
2024-03-05T15:31:27.438Z,63.11
2024-03-05T15:33:54.758Z,63.16
2024-03-05T15:36:22.075Z,63.39
2024-03-05T15:38:48.796Z,62.87
2024-03-05T15:41:16.506Z,63.41
2024-03-05T15:43:43.578Z,62.92
2024-03-05T15:46:10.247Z,63.14
2024-03-05T15:48:36.938Z,62.17
2024-03-05T15:51:04.277Z,62.09
2024-03-05T15:53:31.359Z,61.97
2024-03-05T15:56:13.498Z,61.58
2024-03-05T15:58:43.557Z,61.74
2024-03-05T16:01:11.731Z,61.75
2024-03-05T16:03:57.486Z,61.55
2024-03-05T16:06:31.163Z,61.39
2024-03-05T16:08:58.945Z,60.90
2024-03-05T16:11:26.672Z,60.35
2024-03-05T16:13:53.605Z,60.25
2024-03-05T16:16:24.737Z,59.94
2024-03-05T16:18:51.990Z,59.86
2024-03-05T16:21:18.740Z,60.12
2024-03-05T16:23:47.071Z,60.13
2024-03-05T16:26:13.712Z,59.88
2024-03-05T16:28:41.420Z,60.00
2024-03-05T16:31:12.402Z,59.81
2024-03-05T16:33:42.243Z,60.06
2024-03-05T16:36:20.896Z,60.25
2024-03-05T16:38:47.533Z,60.48
2024-03-05T16:41:14.276Z,60.91
2024-03-05T16:43:41.174Z,61.09
2024-03-05T16:46:09.356Z,60.89
2024-03-05T16:48:36.044Z,60.60
2024-03-05T16:51:03.395Z,60.34
2024-03-05T16:53:30.624Z,60.36
2024-03-05T16:55:57.345Z,60.39
2024-03-05T16:58:24.948Z,60.50
2024-03-05T17:00:57.996Z,60.60
2024-03-05T17:03:29.912Z,60.71
2024-03-05T17:05:58.394Z,60.64
2024-03-05T17:08:26.593Z,60.60
2024-03-05T17:10:55.104Z,60.60
2024-03-05T17:13:27.452Z,60.70
2024-03-05T17:15:57.464Z,60.64
2024-03-05T17:18:24.988Z,60.67
2024-03-05T17:20:54.665Z,61.04
2024-03-05T17:23:25.835Z,60.73
2024-03-05T17:25:55.898Z,60.73
2024-03-05T17:28:23.028Z,60.74
2024-03-05T17:30:50.201Z,60.57
2024-03-05T17:33:17.174Z,60.65
2024-03-05T17:35:44.555Z,60.68
2024-03-05T17:38:13.913Z,60.83
2024-03-05T17:40:41.508Z,60.88
2024-03-05T17:43:08.688Z,61.07
2024-03-05T17:45:35.666Z,61.07
2024-03-05T17:48:07.074Z,61.04
2024-03-05T17:50:36.169Z,61.18
2024-03-05T17:53:07.209Z,61.30
2024-03-05T17:55:36.266Z,61.16
2024-03-05T17:58:05.587Z,61.20
2024-03-05T18:00:42.981Z,60.96
2024-03-05T18:03:12.256Z,60.94
2024-03-05T18:05:40.148Z,60.91
2024-03-05T18:08:07.513Z,60.88
2024-03-05T18:10:36.676Z,60.92
2024-03-05T18:13:05.989Z,61.04
2024-03-05T18:15:33.525Z,61.18
2024-03-05T18:18:01.101Z,60.98
2024-03-05T18:20:30.197Z,60.90
2024-03-05T18:23:00.916Z,60.74
2024-03-05T18:25:35.662Z,60.79
2024-03-05T18:28:05.269Z,60.95
2024-03-05T18:30:43.420Z,61.04
2024-03-05T18:33:12.800Z,61.22
2024-03-05T18:35:41.674Z,61.36
2024-03-05T18:40:41.203Z,61.42
2024-03-05T18:43:10.944Z,61.49
2024-03-05T18:45:38.427Z,61.46
2024-03-05T18:48:09.693Z,61.51
2024-03-05T18:50:37.357Z,61.59
2024-03-05T18:53:07.294Z,61.70
2024-03-05T18:55:37.252Z,61.87
2024-03-05T18:58:08.030Z,61.93
2024-03-05T19:00:37.540Z,62.03
2024-03-05T19:03:05.999Z,62.13
2024-03-05T19:05:34.470Z,62.08
2024-03-05T19:08:01.710Z,61.97
2024-03-05T19:10:28.629Z,61.91
2024-03-05T19:12:55.445Z,61.84
2024-03-05T19:15:23.751Z,61.89
2024-03-05T19:17:50.955Z,61.77
2024-03-05T19:20:18.125Z,61.79
2024-03-05T19:22:45.142Z,61.66
2024-03-05T19:25:13.046Z,61.69
2024-03-05T19:27:42.448Z,61.62
2024-03-05T19:30:17.340Z,61.59
2024-03-05T19:32:45.253Z,61.78
2024-03-05T19:35:15.328Z,61.86
2024-03-05T19:37:44.328Z,61.97
2024-03-05T19:40:17.941Z,61.97
2024-03-05T19:42:46.907Z,61.92
2024-03-05T19:45:14.979Z,61.87
2024-03-05T19:47:42.643Z,62.05
2024-03-05T19:50:14.739Z,62.08
2024-03-05T19:52:41.911Z,62.17
2024-03-05T19:55:09.576Z,62.34
2024-03-05T19:57:36.611Z,62.60
2024-03-05T20:00:12.942Z,62.59
2024-03-05T20:02:40.293Z,62.51
2024-03-05T20:05:07.582Z,62.73
2024-03-05T20:07:34.590Z,63.14
2024-03-05T20:10:02.671Z,63.37
2024-03-05T20:12:29.635Z,63.75
2024-03-05T20:14:56.442Z,63.79
2024-03-05T20:17:25.484Z,63.82
2024-03-05T20:19:54.122Z,63.77
2024-03-05T20:22:20.896Z,63.82
2024-03-05T20:24:48.600Z,63.87
2024-03-05T20:27:17.209Z,63.78
2024-03-05T20:29:44.005Z,63.46
2024-03-05T20:32:10.888Z,63.16
2024-03-05T20:34:45.796Z,62.85
2024-03-05T20:37:12.495Z,63.16
2024-03-05T20:39:39.205Z,62.69
2024-03-05T20:42:09.242Z,62.42
2024-03-05T20:44:35.946Z,62.52
2024-03-05T20:47:03.006Z,62.69
2024-03-05T20:49:29.840Z,62.81
2024-03-05T20:51:57.955Z,62.85
2024-03-05T20:54:25.440Z,62.57
2024-03-05T20:56:52.268Z,62.50
2024-03-05T20:59:19.946Z,62.64
2024-03-05T21:01:47.159Z,62.63
2024-03-05T21:04:13.958Z,62.80
2024-03-05T21:06:40.710Z,62.81
2024-03-05T21:09:08.822Z,62.77
2024-03-05T21:11:35.803Z,62.54
2024-03-05T21:14:04.156Z,62.56
2024-03-05T21:16:31.107Z,62.39
2024-03-05T21:18:58.203Z,62.20
2024-03-05T21:21:25.288Z,62.08
2024-03-05T21:23:51.994Z,62.11
2024-03-05T21:26:34.582Z,62.04
2024-03-05T21:29:06.216Z,62.01
2024-03-05T21:31:38.141Z,62.03
2024-03-05T21:34:07.669Z,61.88
2024-03-05T21:36:34.494Z,61.90
2024-03-05T21:39:01.794Z,61.99
2024-03-05T21:41:28.616Z,61.60
2024-03-05T21:43:55.374Z,61.42
2024-03-05T21:46:22.806Z,61.35
2024-03-05T21:48:49.576Z,61.20
2024-03-05T21:51:16.948Z,60.96
2024-03-05T21:53:43.894Z,60.76
2024-03-05T21:56:11.432Z,60.82
2024-03-05T21:58:43.322Z,61.02
2024-03-05T22:01:10.708Z,61.30
2024-03-05T22:03:37.539Z,61.07
2024-03-05T22:06:14.905Z,60.95
2024-03-05T22:08:45.818Z,60.91
2024-03-05T22:11:13.981Z,60.92
2024-03-05T22:13:40.849Z,60.88
2024-03-05T22:16:07.523Z,61.01
2024-03-05T22:18:34.275Z,61.12
2024-03-05T22:21:00.883Z,61.15
2024-03-05T22:23:27.612Z,61.18
2024-03-05T22:25:54.612Z,61.31
2024-03-05T22:28:22.161Z,61.15
2024-03-05T22:30:49.776Z,61.03
2024-03-05T22:33:16.490Z,61.11
2024-03-05T22:35:43.253Z,61.27
2024-03-05T22:38:11.143Z,60.96
2024-03-05T22:40:38.120Z,61.09
2024-03-05T22:43:06.491Z,61.26
2024-03-05T22:45:35.959Z,61.32
2024-03-05T22:48:02.664Z,61.42
2024-03-05T22:50:29.465Z,61.28
2024-03-05T22:52:56.134Z,61.12
2024-03-05T22:55:22.985Z,60.93
2024-03-05T22:57:50.064Z,60.64
2024-03-05T23:00:24.293Z,60.42
2024-03-05T23:02:55.079Z,60.25
2024-03-05T23:05:22.173Z,60.18
2024-03-05T23:07:49.426Z,60.26
2024-03-05T23:10:17.614Z,60.18
2024-03-05T23:12:45.298Z,60.20
2024-03-05T23:15:16.374Z,60.08
2024-03-05T23:17:44.435Z,60.17
2024-03-05T23:20:12.558Z,60.49
2024-03-05T23:22:40.468Z,60.74
2024-03-05T23:25:08.826Z,60.86
2024-03-05T23:27:36.672Z,60.80
2024-03-05T23:30:27.068Z,60.84
2024-03-05T23:32:55.849Z,61.06
2024-03-05T23:35:26.449Z,61.20
2024-03-05T23:37:54.700Z,61.30
2024-03-05T23:40:21.343Z,61.24
2024-03-05T23:42:48.075Z,61.22
2024-03-05T23:45:14.818Z,61.31
2024-03-05T23:47:42.136Z,61.44
2024-03-05T23:50:10.470Z,61.60
2024-03-05T23:52:37.959Z,61.92
2024-03-05T23:55:07.116Z,62.10
2024-03-05T23:57:34.080Z,62.25
